Time;durP1;ratioP1;P1;durP2;ratioP2;P2;SDS_P1;SDS_P2;PMS_P1;PMS_P2;Temp;Humidity;BMP_temperature;BMP_pressure;BME280_temperature;BME280_humidity;BME280_pressure;Samples;Min_cycle;Max_cycle;Signal;HPM_P1;HPM_P2
2022/09/09 06:08:27;;;;;;;7.18;4.65;;;;;;;16.30;100.00;98558.69;4510919;31;208355;-74
2022/09/09 06:11:02;;;;;;;6.12;4.43;;;;;;;16.30;100.00;98558.69;4496206;31;20144;-73
2022/09/09 06:13:30;;;;;;;5.07;4.28;;;;;;;15.94;100.00;98551.38;4506607;31;20088;-73
2022/09/09 06:15:58;;;;;;;5.97;3.90;;;;;;;15.98;100.00;98555.31;4508715;31;20108;-74
2022/09/09 06:18:26;;;;;;;5.62;4.05;;;;;;;16.03;100.00;98557.44;4511229;31;20426;-73
2022/09/09 06:20:58;;;;;;;9.10;3.50;;;;;;;16.13;100.00;98558.00;4511049;31;20146;-75
2022/09/09 06:23:26;;;;;;;4.18;3.17;;;;;;;16.35;100.00;98563.44;4509150;31;20075;-73
2022/09/09 06:26:30;;;;;;;3.62;3.25;;;;;;;16.74;100.00;98568.50;4505789;31;20096;-74
2022/09/09 06:28:59;;;;;;;4.93;2.85;;;;;;;16.98;100.00;98574.56;4440936;32;20121;-73
2022/09/09 06:31:29;;;;;;;3.22;2.85;;;;;;;17.14;100.00;98570.91;4446380;32;20130;-73
2022/09/09 06:33:59;;;;;;;2.90;2.55;;;;;;;17.17;100.00;98571.34;4442279;32;20107;-73
2022/09/09 06:36:35;;;;;;;3.75;2.25;;;;;;;17.25;100.00;98566.97;4444716;32;20300;-74
2022/09/09 06:39:03;;;;;;;2.90;2.60;;;;;;;17.30;100.00;98567.22;4434682;32;20113;-73
2022/09/09 06:41:32;;;;;;;5.93;2.40;;;;;;;17.22;100.00;98554.91;4441216;32;20455;-73
2022/09/09 06:44:00;;;;;;;3.00;2.45;;;;;;;17.24;100.00;98560.03;4442914;32;20116;-73
2022/09/09 06:46:32;;;;;;;4.07;2.50;;;;;;;17.22;100.00;98562.03;4442470;32;20576;-73
2022/09/09 06:49:00;;;;;;;3.85;2.37;;;;;;;17.11;100.00;98572.09;4441386;32;21466;-73
2022/09/09 06:51:29;;;;;;;6.75;3.10;;;;;;;17.20;100.00;98573.63;4437733;32;20497;-74
2022/09/09 06:53:59;;;;;;;2.87;2.12;;;;;;;17.30;100.00;98572.53;4444349;32;20575;-73
2022/09/09 06:56:31;;;;;;;4.57;1.85;;;;;;;17.32;100.00;98571.34;4439911;32;20116;-73
2022/09/09 06:59:03;;;;;;;2.83;1.83;;;;;;;17.27;100.00;98578.19;4443409;32;20972;-73
2022/09/09 07:01:36;;;;;;;3.90;3.47;;;;;;;17.17;100.00;98576.66;4442271;32;20498;-76
2022/09/09 07:04:07;;;;;;;3.30;2.15;;;;;;;17.10;100.00;98586.31;4460870;31;20813;-74
2022/09/09 07:06:37;;;;;;;2.25;2.03;;;;;;;16.94;100.00;98595.28;4503823;31;20087;-74
2022/09/09 07:09:13;;;;;;;3.08;2.62;;;;;;;16.78;100.00;98590.13;4496599;31;20122;-75
2022/09/09 07:11:50;;;;;;;3.45;2.65;;;;;;;16.78;100.00;98590.94;4501830;31;20076;-76
2022/09/09 07:14:18;;;;;;;2.65;2.42;;;;;;;16.92;100.00;98591.16;4491706;31;20131;-75
2022/09/09 07:16:46;;;;;;;3.17;2.25;;;;;;;16.97;100.00;98596.72;4497505;31;21215;-75
2022/09/09 07:19:14;;;;;;;4.47;2.53;;;;;;;17.10;100.00;98590.81;4501819;31;20106;-76
2022/09/09 07:21:42;;;;;;;4.55;2.60;;;;;;;17.24;100.00;98599.75;4500930;31;20122;-79
2022/09/09 07:24:10;;;;;;;3.45;2.35;;;;;;;17.32;100.00;98594.31;4495454;31;20084;-77
2022/09/09 07:26:39;;;;;;;2.37;2.17;;;;;;;17.45;100.00;98591.84;4497019;31;20104;-77
2022/09/09 07:29:07;;;;;;;3.87;2.47;;;;;;;17.59;100.00;98599.94;4488444;31;20108;-78
2022/09/09 07:31:37;;;;;;;3.72;2.28;;;;;;;17.71;100.00;98595.78;4490840;31;20614;-79
2022/09/09 07:34:06;;;;;;;2.70;2.45;;;;;;;17.69;100.00;98598.63;4487814;31;20104;-78
2022/09/09 07:36:38;;;;;;;3.78;2.78;;;;;;;17.79;100.00;98598.34;4494872;31;20092;-78
2022/09/09 07:39:11;;;;;;;2.60;2.40;;;;;;;17.77;100.00;98600.34;4489880;31;20111;-78
2022/09/09 07:41:49;;;;;;;2.97;2.42;;;;;;;17.89;100.00;98601.53;4494444;31;20489;-77
2022/09/09 07:44:21;;;;;;;4.03;2.50;;;;;;;17.86;100.00;98590.47;4488149;31;20114;-78
2022/09/09 07:46:49;;;;;;;5.20;2.35;;;;;;;17.88;100.00;98593.72;4496496;31;20114;-79
2022/09/09 07:49:17;;;;;;;4.72;2.75;;;;;;;17.96;100.00;98600.78;4485893;31;20093;-76
2022/09/09 07:51:52;;;;;;;3.42;2.30;;;;;;;17.98;100.00;98596.91;4495505;31;20104;-77
2022/09/09 07:54:20;;;;;;;2.87;2.40;;;;;;;17.94;100.00;98600.97;4499071;31;20168;-75
2022/09/09 07:56:47;;;;;;;4.50;2.15;;;;;;;18.05;100.00;98607.59;4498667;31;20100;-77
2022/09/09 07:59:16;;;;;;;6.10;2.40;;;;;;;18.09;100.00;98606.19;4499736;31;20100;-78
2022/09/09 08:01:46;;;;;;;2.00;1.77;;;;;;;18.23;100.00;98596.56;4499530;31;20118;-76
2022/09/09 08:04:19;;;;;;;2.87;2.08;;;;;;;18.19;100.00;98600.59;4495395;31;20114;-76
2022/09/09 08:06:52;;;;;;;2.55;2.12;;;;;;;18.25;100.00;98605.13;4497520;31;20114;-76
2022/09/09 08:09:21;;;;;;;6.90;1.90;;;;;;;18.41;100.00;98599.56;4497821;31;20107;-77
2022/09/09 08:11:48;;;;;;;3.47;2.17;;;;;;;18.56;100.00;98604.78;4496529;31;20122;-77
2022/09/09 08:14:16;;;;;;;2.85;2.00;;;;;;;18.57;100.00;98598.44;4494375;31;20096;-76
2022/09/09 08:16:45;;;;;;;5.55;2.00;;;;;;;18.61;100.00;98597.06;4490385;31;20119;-76
2022/09/09 08:19:14;;;;;;;1.98;1.75;;;;;;;18.70;100.00;98603.03;4498028;31;20128;-76
2022/09/09 08:21:44;;;;;;;7.20;1.80;;;;;;;18.86;100.00;98609.88;4498128;31;20100;-76
2022/09/09 08:24:13;;;;;;;2.78;1.58;;;;;;;19.00;100.00;98608.16;4490418;31;20100;-77
2022/09/09 08:26:43;;;;;;;2.03;1.80;;;;;;;19.16;100.00;98612.31;4487695;31;20410;-78
2022/09/09 08:29:12;;;;;;;1.83;1.40;;;;;;;19.36;100.00;98606.28;4491865;31;20143;-78
2022/09/09 08:31:43;;;;;;;5.53;1.58;;;;;;;19.27;100.00;98614.44;4496142;31;20096;-77
2022/09/09 08:34:12;;;;;;;1.77;1.40;;;;;;;19.29;100.00;98609.72;4488706;31;20096;-77
2022/09/09 08:36:44;;;;;;;5.47;1.37;;;;;;;19.42;100.00;98606.31;4492074;31;20513;-77
2022/09/09 08:39:15;;;;;;;2.50;1.48;;;;;;;19.47;100.00;98606.53;4492109;31;20508;-77
2022/09/09 08:42:14;;;;;;;1.30;1.20;;;;;;;19.60;100.00;98607.59;4487560;31;20390;-77
2022/09/09 08:44:51;;;;;;;1.52;1.42;;;;;;;19.76;100.00;98619.72;4491337;31;20544;-77
2022/09/09 08:47:27;;;;;;;7.32;1.35;;;;;;;19.83;100.00;98618.75;4494223;31;20085;-77
2022/09/09 08:50:12;;;;;;;2.28;1.40;;;;;;;19.92;100.00;98621.22;4499519;31;20095;-77
2022/09/09 08:52:42;;;;;;;1.58;1.20;;;;;;;19.87;99.48;98626.31;4494024;31;20153;-77
2022/09/09 08:55:21;;;;;;;4.03;1.30;;;;;;;19.92;100.00;98624.69;4490896;31;20088;-77
2022/09/09 08:57:51;;;;;;;3.40;1.25;;;;;;;20.18;100.00;98615.13;4494935;31;20130;-77
2022/09/09 09:00:19;;;;;;;8.73;1.20;;;;;;;20.08;95.20;98617.38;4490230;31;20104;-79
2022/09/09 09:03:15;;;;;;;1.65;1.30;;;;;;;20.15;95.95;98627.00;4492970;31;20156;-83
2022/09/09 09:06:22;;;;;;;2.95;1.20;;;;;;;20.18;94.07;98625.75;4494413;31;20108;-82
2022/09/09 09:08:58;;;;;;;1.75;1.20;;;;;;;20.37;94.70;98609.00;4491382;31;20419;-82
2022/09/09 09:11:26;;;;;;;2.53;1.23;;;;;;;20.51;94.75;98611.66;4484875;31;20108;-82
2022/09/09 09:14:25;;;;;;;1.87;1.30;;;;;;;20.58;91.50;98609.81;4491905;31;20100;-82
2022/09/09 09:17:05;;;;;;;5.10;1.10;;;;;;;20.64;87.28;98608.19;4433569;32;20197;-82
2022/09/09 09:19:33;;;;;;;2.17;1.20;;;;;;;20.80;88.71;98606.94;4433933;32;20089;-82
2022/09/09 09:22:25;;;;;;;2.28;1.00;;;;;;;20.70;88.33;98597.53;4418991;32;20135;-81
2022/09/09 09:25:08;;;;;;;6.65;1.30;;;;;;;20.69;84.78;98595.91;4431464;32;20503;-81
2022/09/09 09:27:41;;;;;;;1.42;1.30;;;;;;;21.01;86.83;98596.03;4425822;32;20101;-82
2022/09/09 09:30:14;;;;;;;5.60;1.15;;;;;;;20.91;83.64;98593.00;4428532;32;20097;-83
2022/09/09 09:33:03;;;;;;;2.17;1.10;;;;;;;20.96;80.78;98590.53;4429627;32;20164;-82
2022/09/09 09:35:30;;;;;;;1.80;0.90;;;;;;;21.00;78.75;98586.44;4431208;32;20542;-83
2022/09/09 09:38:00;;;;;;;1.23;0.90;;;;;;;21.05;79.52;98591.13;4428263;32;20101;-82
2022/09/09 09:40:57;;;;;;;3.05;0.90;;;;;;;21.13;76.84;98590.87;4427559;32;20105;-80
2022/09/09 09:43:36;;;;;;;0.80;0.80;;;;;;;21.26;79.83;98603.34;4428092;32;20282;-80
2022/09/09 09:46:04;;;;;;;1.67;1.10;;;;;;;21.38;77.76;98598.19;4431364;32;20109;-81
2022/09/09 09:48:46;;;;;;;2.33;0.90;;;;;;;21.39;75.99;98599.81;4418636;32;20110;-80
2022/09/09 09:51:17;;;;;;;1.00;0.73;;;;;;;21.35;73.63;98599.44;4432893;32;20081;-79
2022/09/09 09:53:45;;;;;;;2.75;1.08;;;;;;;21.43;70.65;98599.19;4466085;31;20100;-79
2022/09/09 09:56:14;;;;;;;0.95;0.85;;;;;;;21.62;74.52;98600.16;4488105;31;20575;-80
2022/09/09 09:58:45;;;;;;;3.95;0.93;;;;;;;21.66;71.08;98599.72;4484399;31;20100;-80
2022/09/09 10:01:25;;;;;;;1.65;0.82;;;;;;;21.61;74.33;98597.69;4496165;31;20497;-79
2022/09/09 10:04:03;;;;;;;1.05;0.73;;;;;;;21.72;70.96;98588.22;4484546;31;20131;-80
2022/09/09 10:06:30;;;;;;;2.92;0.57;;;;;;;21.88;70.58;98594.91;4490368;31;20104;-79
2022/09/09 10:08:59;;;;;;;1.15;0.70;;;;;;;21.94;64.82;98594.03;4498904;31;20110;-77
2022/09/09 10:11:49;;;;;;;2.30;0.70;;;;;;;22.04;68.03;98596.22;4487296;31;20111;-77
2022/09/09 10:14:21;;;;;;;0.80;0.80;;;;;;;22.04;71.68;98591.69;4484192;31;20145;-78
2022/09/09 10:16:52;;;;;;;1.08;0.70;;;;;;;22.20;69.96;98594.88;4495167;31;20860;-77
2022/09/09 10:19:40;;;;;;;2.20;0.80;;;;;;;22.31;70.01;98596.88;4498984;31;20079;-77
2022/09/09 10:22:16;;;;;;;0.70;0.70;;;;;;;22.43;66.31;98595.12;4488190;31;20123;-77
2022/09/09 10:24:56;;;;;;;4.22;0.62;;;;;;;22.42;66.59;98592.66;4486380;31;20108;-78
2022/09/09 10:27:25;;;;;;;0.93;0.73;;;;;;;22.55;67.19;98591.75;4492779;31;20084;-78
2022/09/09 10:30:14;;;;;;;1.37;0.60;;;;;;;22.50;61.85;98590.53;4485948;31;20453;-80
2022/09/09 10:33:10;;;;;;;1.62;0.55;;;;;;;22.66;61.72;98599.88;4498220;31;20163;-80
2022/09/09 10:35:40;;;;;;;4.45;0.70;;;;;;;22.72;58.35;98600.81;4493392;31;20438;-79
2022/09/09 10:38:15;;;;;;;2.97;0.50;;;;;;;22.77;61.42;98592.97;4492580;31;20100;-81
2022/09/09 10:40:56;;;;;;;0.70;0.70;;;;;;;22.94;59.44;98592.41;4491052;31;20192;-81
2022/09/09 10:43:42;;;;;;;0.70;0.70;;;;;;;23.00;62.24;98591.50;4491811;31;20114;-80
2022/09/09 10:46:36;;;;;;;0.90;0.60;;;;;;;23.10;57.97;98581.13;4485335;31;20180;-81
2022/09/09 10:49:18;;;;;;;0.70;0.60;;;;;;;22.93;58.71;98594.25;4429982;32;20097;-81
2022/09/09 10:52:15;;;;;;;4.07;0.60;;;;;;;23.14;61.29;98586.88;4430858;32;20181;-81
2022/09/09 10:54:59;;;;;;;0.65;0.50;;;;;;;23.32;57.57;98586.03;4418424;32;20119;-81
2022/09/09 10:57:37;;;;;;;1.12;0.70;;;;;;;23.41;59.00;98587.34;4435230;32;20573;-80
2022/09/09 11:00:07;;;;;;;1.00;0.55;;;;;;;23.53;58.12;98588.22;4423398;32;20117;-80
2022/09/09 11:02:35;;;;;;;0.52;0.47;;;;;;;23.67;55.58;98586.19;4432421;32;20141;-80
2022/09/09 11:05:19;;;;;;;5.47;0.60;;;;;;;23.78;54.84;98584.59;4426859;32;20165;-80
2022/09/09 11:08:03;;;;;;;0.30;0.30;;;;;;;23.87;56.51;98577.91;4419492;32;20129;-80
2022/09/09 11:11:07;;;;;;;0.50;0.40;;;;;;;23.81;53.09;98578.78;4420011;32;20101;-81
2022/09/09 11:13:39;;;;;;;;;;;;;;;23.86;51.64;98576.28;4422334;32;20132;-80
2022/09/09 11:16:34;;;;;;;1.48;0.30;;;;;;;24.14;49.89;98582.84;4421481;32;19999;-80
2022/09/09 11:19:05;;;;;;;0.60;0.40;;;;;;;24.04;47.44;98577.25;4426830;32;20171;-80
2022/09/09 11:21:37;;;;;;;0.75;0.70;;;;;;;24.10;49.94;98581.69;4419984;32;20624;-80
2022/09/09 11:24:12;;;;;;;0.57;0.50;;;;;;;24.02;50.18;98584.69;4416619;32;20118;-80
2022/09/09 11:26:45;;;;;;;0.57;0.43;;;;;;;24.10;51.58;98581.69;4472122;31;20104;-79
2022/09/09 11:29:24;;;;;;;;;;;;;;;24.16;49.44;98590.66;4488169;31;20119;-79
2022/09/09 11:32:03;;;;;;;0.80;0.30;;;;;;;24.19;48.48;98595.56;4493154;31;19992;-80
2022/09/09 11:34:56;;;;;;;0.95;0.40;;;;;;;24.16;45.86;98596.00;4491246;31;20092;-80
2022/09/09 11:37:37;;;;;;;0.88;0.57;;;;;;;24.13;49.57;98593.78;4495493;31;20156;-80
2022/09/09 11:40:07;;;;;;;1.12;0.60;;;;;;;24.19;49.26;98588.31;4497106;31;20146;-82
2022/09/09 11:42:35;;;;;;;0.32;0.30;;;;;;;24.23;48.95;98576.13;4496311;31;20105;-81
2022/09/09 11:45:15;;;;;;;0.52;0.40;;;;;;;24.20;51.14;98581.94;4497952;31;20151;-81
2022/09/09 11:47:52;;;;;;;0.30;0.30;;;;;;;23.96;50.11;98590.97;4494827;31;20456;-81
2022/09/09 11:50:19;;;;;;;0.50;0.50;;;;;;;23.86;50.94;98589.66;4500940;31;20095;-84
2022/09/09 11:52:50;;;;;;;0.82;0.60;;;;;;;23.83;51.71;98576.72;4497744;31;20118;-82
2022/09/09 11:55:26;;;;;;;1.27;0.65;;;;;;;24.12;53.72;98568.91;4486857;31;20135;-82
2022/09/09 11:58:14;;;;;;;1.33;0.65;;;;;;;24.06;49.41;98580.53;4497832;31;20399;-83
2022/09/09 12:00:44;;;;;;;0.47;0.45;;;;;;;23.78;50.88;98571.22;4489294;31;20105;-83
2022/09/09 12:03:39;;;;;;;1.70;0.52;;;;;;;24.03;52.27;98571.09;4498091;31;20229;-83
2022/09/09 12:06:14;;;;;;;0.43;0.43;;;;;;;23.99;51.17;98579.81;4492303;31;20104;-83
2022/09/09 12:08:45;;;;;;;0.40;0.40;;;;;;;23.92;49.85;98585.25;4497524;31;20092;-82
2022/09/09 12:11:24;;;;;;;1.30;0.70;;;;;;;24.05;50.66;98597.63;4485600;31;20138;-83
2022/09/09 12:14:01;;;;;;;0.50;0.50;;;;;;;24.04;50.17;98586.13;4492921;31;20108;-83
2022/09/09 12:16:34;;;;;;;2.78;0.45;;;;;;;24.20;48.28;98576.59;4483770;31;20114;-83
2022/09/09 12:19:03;;;;;;;;;;;;;;;24.29;50.11;98576.25;4486103;31;20118;-83
2022/09/09 12:21:36;;;;;;;0.45;0.45;;;;;;;24.15;50.38;98571.13;4490980;31;19973;-83
2022/09/09 12:24:11;;;;;;;2.37;0.60;;;;;;;24.14;49.46;98574.81;4488369;31;20164;-83
2022/09/09 12:26:42;;;;;;;0.73;0.50;;;;;;;24.17;49.39;98571.69;4496318;31;20115;-83
2022/09/09 12:29:18;;;;;;;1.15;0.57;;;;;;;23.97;49.00;98572.00;4491964;31;20114;-83
2022/09/09 12:32:20;;;;;;;1.45;0.40;;;;;;;24.15;48.85;98557.72;4493196;31;20118;-83
2022/09/09 12:34:55;;;;;;;0.93;0.70;;;;;;;24.19;49.21;98547.38;4488709;31;20104;-83
2022/09/09 12:37:34;;;;;;;1.20;0.60;;;;;;;24.19;50.07;98545.50;4485600;31;20120;-83
2022/09/09 12:40:29;;;;;;;2.20;0.57;;;;;;;23.90;49.46;98555.22;4491070;31;20511;-83
2022/09/09 12:42:56;;;;;;;;;;;;;;;23.81;50.93;98551.22;4493597;31;20151;-83
2022/09/09 12:45:31;;;;;;;2.83;0.65;;;;;;;23.80;46.08;98544.25;4495672;31;20020;-84
2022/09/09 12:48:03;;;;;;;1.05;0.50;;;;;;;23.79;47.10;98543.44;4494462;31;20114;-84
2022/09/09 12:50:33;;;;;;;3.30;0.50;;;;;;;23.96;47.52;98535.59;4486651;31;20110;-84
2022/09/09 12:53:23;;;;;;;0.95;0.52;;;;;;;24.31;46.87;98534.00;4489648;31;21468;-85
2022/09/09 12:55:59;;;;;;;1.52;0.68;;;;;;;24.75;49.35;98527.22;4486406;31;20220;-85
2022/09/09 12:58:28;;;;;;;1.30;0.50;;;;;;;25.09;45.78;98530.09;4494680;31;20404;-85
2022/09/09 13:00:57;;;;;;;1.50;0.62;;;;;;;24.88;46.97;98518.12;4496941;31;20100;-86
2022/09/09 13:03:27;;;;;;;1.25;0.50;;;;;;;24.98;47.29;98507.63;4496146;31;20460;-86
2022/09/09 13:05:59;;;;;;;0.70;0.70;;;;;;;24.63;47.55;98507.69;4492441;31;20160;-86
2022/09/09 13:08:27;;;;;;;6.90;0.73;;;;;;;24.54;48.83;98506.41;4492908;31;20492;-86
2022/09/09 13:11:03;;;;;;;0.73;0.47;;;;;;;24.47;49.59;98500.34;4488343;31;20169;-86
2022/09/09 13:13:41;;;;;;;0.65;0.50;;;;;;;24.54;48.41;98501.03;4491326;31;20139;-86
2022/09/09 13:16:31;;;;;;;1.27;0.60;;;;;;;24.19;44.23;98494.63;4490353;31;20130;-86
2022/09/09 13:19:15;;;;;;;2.45;0.60;;;;;;;24.29;47.25;98501.31;4490571;31;20096;-86
2022/09/09 13:21:42;;;;;;;0.88;0.60;;;;;;;24.48;47.98;98500.09;4492150;31;20088;-86
2022/09/09 13:24:29;;;;;;;0.75;0.50;;;;;;;24.53;45.92;98510.94;4496323;31;20221;-86
2022/09/09 13:27:24;;;;;;;0.65;0.60;;;;;;;24.63;45.58;98510.38;4492463;31;20095;-87
2022/09/09 13:29:54;;;;;;;3.92;0.88;;;;;;;24.84;45.21;98506.25;4490039;31;20660;-86
2022/09/09 13:32:22;;;;;;;0.60;0.60;;;;;;;25.06;46.54;98497.59;4494286;31;20096;-86
2022/09/09 13:35:00;;;;;;;0.95;0.70;;;;;;;24.92;46.10;98492.50;4492403;31;20421;-86
2022/09/09 13:37:33;;;;;;;1.48;0.68;;;;;;;24.89;45.72;98487.62;4493689;31;20393;-87
2022/09/09 13:40:01;;;;;;;;;;;;;;;25.02;46.96;98485.72;4494160;31;20140;-86
2022/09/09 13:42:32;;;;;;;0.68;0.50;;;;;;;25.06;47.85;98481.53;4499610;31;20135;-86
2022/09/09 13:45:04;;;;;;;2.08;0.50;;;;;;;25.07;47.26;98483.13;4496555;31;20485;-86
2022/09/09 13:47:35;;;;;;;2.20;0.60;;;;;;;25.28;48.60;98479.75;4493013;31;20111;-86
2022/09/09 13:50:21;;;;;;;1.42;0.55;;;;;;;25.64;47.27;98477.75;4492081;31;20100;-85
2022/09/09 13:52:53;;;;;;;0.50;0.50;;;;;;;25.69;46.65;98468.97;4493224;31;20597;-86
2022/09/09 13:55:22;;;;;;;0.40;0.40;;;;;;;25.63;47.06;98454.69;4497306;31;20469;-85
2022/09/09 13:57:54;;;;;;;1.12;0.60;;;;;;;25.45;48.81;98455.72;4492273;31;20135;-85
2022/09/09 14:00:22;;;;;;;3.65;0.52;;;;;;;25.00;49.42;98450.28;4498176;31;20467;-85
2022/09/09 14:02:50;;;;;;;0.75;0.75;;;;;;;24.58;49.46;98454.84;4499244;31;20433;-85
2022/09/09 14:05:19;;;;;;;0.93;0.50;;;;;;;24.40;49.14;98453.06;4497262;31;20088;-86
2022/09/09 14:07:46;;;;;;;0.50;0.50;;;;;;;24.47;51.13;98444.09;4496928;31;20147;-85
2022/09/09 14:10:19;;;;;;;1.23;0.50;;;;;;;24.35;50.86;98444.16;4500301;31;20080;-86
2022/09/09 14:12:46;;;;;;;0.93;0.70;;;;;;;24.21;49.85;98440.88;4498907;31;20100;-86
2022/09/09 14:15:14;;;;;;;1.08;0.57;;;;;;;24.20;48.73;98437.41;4499462;31;20150;-86
2022/09/09 14:17:42;;;;;;;2.58;0.70;;;;;;;24.12;49.37;98443.12;4498046;31;20107;-86
2022/09/09 14:20:11;;;;;;;1.77;0.50;;;;;;;24.21;50.49;98435.53;4500039;31;20108;-86
2022/09/09 14:22:41;;;;;;;0.57;0.57;;;;;;;24.26;51.19;98444.50;4499891;31;20123;-86
2022/09/09 14:25:08;;;;;;;1.92;0.75;;;;;;;24.42;49.14;98442.12;4497634;31;20093;-86
2022/09/09 14:27:35;;;;;;;0.75;0.60;;;;;;;24.44;49.34;98442.72;4494732;31;20151;-86
2022/09/09 14:30:04;;;;;;;4.32;0.60;;;;;;;25.02;49.21;98432.91;4501358;31;20186;-86
2022/09/09 14:32:31;;;;;;;2.85;0.73;;;;;;;25.55;46.58;98430.13;4501520;31;20134;-86
2022/09/09 14:34:58;;;;;;;2.53;0.70;;;;;;;25.48;44.18;98433.78;4501798;31;20088;-86
2022/09/09 14:37:27;;;;;;;0.60;0.57;;;;;;;25.20;45.91;98437.28;4500791;31;20104;-86
2022/09/09 14:39:54;;;;;;;1.00;0.55;;;;;;;24.94;45.95;98428.75;4501694;31;20548;-85
2022/09/09 14:42:22;;;;;;;3.42;0.80;;;;;;;24.79;45.74;98431.94;4501887;31;20168;-85
2022/09/09 14:44:49;;;;;;;1.30;0.60;;;;;;;24.49;45.31;98434.78;4501789;31;20104;-85
2022/09/09 14:47:16;;;;;;;0.70;0.70;;;;;;;24.59;44.61;98436.91;4501767;31;20123;-85
2022/09/09 14:49:44;;;;;;;0.77;0.60;;;;;;;24.56;45.15;98438.16;4500553;31;20127;-85
2022/09/09 14:52:13;;;;;;;1.98;0.50;;;;;;;24.44;45.86;98432.03;4501490;31;20159;-85
2022/09/09 14:54:40;;;;;;;2.33;0.70;;;;;;;24.49;46.09;98444.69;4498296;31;20536;-85
2022/09/09 14:57:07;;;;;;;1.02;0.62;;;;;;;24.65;46.18;98435.12;4498038;31;20092;-86
2022/09/09 14:59:34;;;;;;;1.87;0.60;;;;;;;24.93;46.71;98435.16;4499642;31;20168;-86
2022/09/09 15:02:03;;;;;;;0.50;0.50;;;;;;;24.86;45.29;98425.63;4499865;31;20453;-86
2022/09/09 15:04:31;;;;;;;2.92;0.88;;;;;;;24.68;46.11;98430.13;4499693;31;20080;-86
2022/09/09 15:06:59;;;;;;;0.50;0.50;;;;;;;24.58;48.74;98433.41;4491710;31;20131;-86
2022/09/09 15:09:26;;;;;;;4.10;0.60;;;;;;;24.71;46.28;98436.88;4485217;32;20489;-86
2022/09/09 15:11:53;;;;;;;0.85;0.70;;;;;;;24.72;48.33;98428.59;4486011;31;20161;-86
2022/09/09 15:14:20;;;;;;;0.52;0.50;;;;;;;24.95;45.26;98426.88;4485884;31;20144;-85
2022/09/09 15:16:51;;;;;;;1.48;0.75;;;;;;;25.09;46.98;98430.91;4486246;31;20460;-86
2022/09/09 15:19:18;;;;;;;0.82;0.60;;;;;;;25.59;46.46;98432.06;4486024;31;20533;-85
2022/09/09 15:21:45;;;;;;;0.85;0.55;;;;;;;26.12;43.95;98429.94;4485889;31;20092;-83
2022/09/09 15:24:13;;;;;;;1.42;0.60;;;;;;;26.50;44.31;98435.56;4485796;31;20100;-83
2022/09/09 15:26:40;;;;;;;0.55;0.50;;;;;;;26.26;42.33;98429.59;4485877;31;20096;-83
2022/09/09 15:29:08;;;;;;;0.50;0.40;;;;;;;25.83;43.13;98432.72;4484594;31;20084;-83
2022/09/09 15:31:36;;;;;;;2.15;0.60;;;;;;;25.58;43.58;98430.44;4485852;31;20151;-83
2022/09/09 15:34:05;;;;;;;7.40;0.82;;;;;;;25.37;44.29;98444.56;4485682;31;20130;-83
2022/09/09 15:36:40;;;;;;;1.75;0.60;;;;;;;24.95;45.61;98442.97;4485823;31;20160;-83
2022/09/09 15:39:12;;;;;;;3.08;0.50;;;;;;;24.65;46.80;98435.12;4485309;32;20119;-83
2022/09/09 15:41:40;;;;;;;1.35;0.40;;;;;;;24.43;45.97;98441.09;4484411;32;20080;-83
2022/09/09 15:44:08;;;;;;;0.50;0.50;;;;;;;24.58;47.05;98437.97;4485525;31;20454;-83
2022/09/09 15:46:41;;;;;;;0.50;0.43;;;;;;;24.50;47.68;98431.06;4485787;32;20450;-83
2022/09/09 15:49:18;;;;;;;3.17;0.47;;;;;;;24.26;47.76;98425.75;4485717;31;20068;-83
2022/09/09 15:51:47;;;;;;;2.65;0.62;;;;;;;24.43;48.06;98425.84;4485802;31;20080;-83
2022/09/09 15:54:18;;;;;;;0.40;0.40;;;;;;;24.37;48.60;98434.81;4484175;32;20127;-83
2022/09/09 15:56:48;;;;;;;1.75;0.60;;;;;;;24.28;47.02;98422.84;4485642;31;20152;-83
2022/09/09 15:59:15;;;;;;;0.90;0.70;;;;;;;24.17;47.58;98424.47;4485636;31;20101;-83
2022/09/09 16:01:43;;;;;;;1.25;0.50;;;;;;;24.02;49.00;98430.31;4485671;31;20132;-83
2022/09/09 16:04:11;;;;;;;0.77;0.50;;;;;;;23.72;49.95;98441.06;4485561;31;20139;-83
2022/09/09 16:06:38;;;;;;;0.77;0.50;;;;;;;23.66;52.83;98448.16;4491555;31;20108;-83
2022/09/09 16:09:07;;;;;;;2.10;0.70;;;;;;;23.56;55.62;98454.06;4501205;31;20548;-83
2022/09/09 16:11:36;;;;;;;2.47;0.77;;;;;;;23.46;57.57;98464.50;4501427;31;20153;-83
2022/09/09 16:14:05;;;;;;;1.55;0.60;;;;;;;23.15;56.70;98462.88;4501396;31;20092;-83
2022/09/09 16:16:33;;;;;;;0.47;0.47;;;;;;;23.07;57.72;98463.19;4501203;31;20156;-83
2022/09/09 16:19:09;;;;;;;1.08;0.70;;;;;;;22.93;57.13;98452.66;4501296;31;20224;-83
2022/09/09 16:21:39;;;;;;;0.73;0.57;;;;;;;22.83;56.80;98455.88;4501334;31;20398;-83
2022/09/09 16:24:08;;;;;;;1.45;0.70;;;;;;;22.70;56.19;98448.03;4501393;31;20126;-83
2022/09/09 16:26:38;;;;;;;2.75;0.73;;;;;;;22.59;57.94;98449.59;4499808;31;20645;-83
2022/09/09 16:29:05;;;;;;;2.33;0.60;;;;;;;22.54;56.27;98451.28;4500926;31;20583;-83
2022/09/09 16:31:32;;;;;;;1.00;0.70;;;;;;;22.41;56.58;98447.72;4501226;31;20123;-83
2022/09/09 16:34:03;;;;;;;0.93;0.60;;;;;;;22.34;56.70;98449.66;4501281;31;20111;-83
2022/09/09 16:36:33;;;;;;;0.95;0.60;;;;;;;22.23;57.50;98448.50;4501266;31;20115;-83
2022/09/09 16:39:10;;;;;;;0.85;0.50;;;;;;;22.08;60.75;98446.16;4501192;31;20092;-83
2022/09/09 16:41:40;;;;;;;0.88;0.60;;;;;;;21.90;59.51;98438.13;4501069;31;20088;-83
2022/09/09 16:44:09;;;;;;;1.17;0.60;;;;;;;21.74;60.30;98448.31;4501540;31;20214;-83
2022/09/09 16:46:38;;;;;;;1.15;0.60;;;;;;;21.60;62.71;98444.13;4501409;31;20087;-83
2022/09/09 16:49:08;;;;;;;2.05;0.62;;;;;;;21.40;64.76;98452.22;4501081;31;20469;-83
2022/09/09 16:51:47;;;;;;;1.33;0.70;;;;;;;21.21;65.16;98453.97;4500200;31;20163;-83
2022/09/09 16:54:15;;;;;;;4.57;0.68;;;;;;;21.05;65.35;98455.28;4495822;31;20142;-83
2022/09/09 16:56:45;;;;;;;1.70;0.90;;;;;;;20.87;68.62;98461.31;4485359;32;20131;-83
2022/09/09 16:59:14;;;;;;;5.35;1.58;;;;;;;20.74;68.17;98463.00;4484972;32;20076;-83
2022/09/09 17:01:42;;;;;;;4.65;1.20;;;;;;;20.67;68.01;98459.53;4485307;32;20114;-83
2022/09/09 17:04:20;;;;;;;2.28;1.20;;;;;;;20.58;67.96;98455.44;4485159;32;20438;-83
2022/09/09 17:06:51;;;;;;;4.55;1.55;;;;;;;20.56;68.51;98454.84;4492119;31;20119;-83
2022/09/09 17:09:20;;;;;;;4.00;1.62;;;;;;;20.49;68.44;98451.38;4500966;31;20126;-83
2022/09/09 17:11:50;;;;;;;2.47;1.12;;;;;;;20.48;67.37;98455.06;4500957;31;20123;-83
2022/09/09 17:14:18;;;;;;;3.22;1.20;;;;;;;20.39;67.77;98452.66;4501362;31;20452;-83
2022/09/09 17:16:46;;;;;;;2.80;1.10;;;;;;;20.25;68.94;98451.03;4501072;31;20127;-83
2022/09/09 17:19:14;;;;;;;1.20;0.90;;;;;;;20.12;69.04;98457.19;4500934;31;20164;-82
2022/09/09 17:21:41;;;;;;;3.80;1.10;;;;;;;20.02;69.40;98454.94;4501121;31;20106;-83
2022/09/09 17:24:29;;;;;;;2.20;0.80;;;;;;;19.89;71.09;98449.62;4500918;31;20087;-82
2022/09/09 17:26:57;;;;;;;2.47;1.08;;;;;;;19.73;72.79;98450.00;4500947;31;20076;-82
2022/09/09 17:29:24;;;;;;;1.80;0.90;;;;;;;19.61;74.39;98444.50;4500674;31;20114;-82
2022/09/09 17:31:52;;;;;;;2.55;0.98;;;;;;;19.49;74.62;98447.75;4501396;31;20563;-82
2022/09/09 17:34:19;;;;;;;1.52;0.95;;;;;;;19.42;75.67;98448.75;4500829;31;20110;-82
2022/09/09 17:36:46;;;;;;;3.95;1.30;;;;;;;19.37;77.09;98443.25;4500831;31;20100;-82
2022/09/09 17:39:14;;;;;;;1.73;0.90;;;;;;;19.30;76.17;98444.06;4500738;31;20088;-82
2022/09/09 17:41:41;;;;;;;5.90;1.20;;;;;;;19.25;78.12;98451.78;4500588;31;21152;-82
2022/09/09 17:44:09;;;;;;;3.42;1.00;;;;;;;19.27;79.78;98444.47;4500770;31;20151;-82
2022/09/09 17:46:40;;;;;;;2.30;0.90;;;;;;;19.34;82.93;98449.75;4500553;31;20163;-82
2022/09/09 17:49:10;;;;;;;1.40;1.00;;;;;;;19.30;82.97;98449.38;4500882;31;20100;-82
2022/09/09 17:51:38;;;;;;;2.30;0.90;;;;;;;19.25;79.42;98449.13;4500489;31;20103;-82
2022/09/09 17:54:08;;;;;;;3.60;0.80;;;;;;;19.25;78.66;98445.66;4496432;31;20130;-82
2022/09/09 17:56:37;;;;;;;1.75;1.10;;;;;;;19.21;76.73;98434.59;4484883;32;20172;-82
2022/09/09 17:59:06;;;;;;;1.27;0.80;;;;;;;19.20;77.75;98440.97;4484453;32;20096;-82
2022/09/09 18:01:35;;;;;;;2.35;0.90;;;;;;;19.19;76.33;98446.47;4484754;32;20179;-82
2022/09/09 18:04:04;;;;;;;2.17;0.80;;;;;;;19.19;76.13;98455.25;4484329;32;20599;-82
2022/09/09 18:06:34;;;;;;;1.95;0.90;;;;;;;19.22;75.58;98457.50;4489780;31;20569;-83